12N

Aeroflex-Andover Airport

Andover, New Jersey, USA
METAR K12N 220254Z AUTO 21010G16KT 22/18 A3000 RMK AO1 SLP152 T02170183 50000
Observed Flight Rules
Sep-22 @ 02:54 UTC (31 minutes ago)
Wind
210° at 10 knots
 Gusting to 16 knots
Temperatures Readings
Current 22°C / 72°F
Dewpoint 18°C / 64°F
Humidity 78%
Altimeter 30" Hg
Pressure 1015.2 hPa
Elevation 177
METAR K12N 220254Z AUTO 21010G16KT 22/18 A3000 RMK AO1 SLP152 T02170183 50000
Observed Flight Rules
Sep-22 @ 02:54 UTC
(31 minutes ago)
Wind
210° at 10 knots
 Gusting to 16 knots
Temperature Dewpoint
22°C / 72°F 18°C / 64°F
Humidity Altimeter Pressure
78% 30" Hg 1015.2 hPa